sensor_id;sensor_type;location;lat;lon;timestamp;P1;durP1;ratioP1;P2;durP2;ratioP2
26377;SDS011;14078;50.974;6.786;2023-07-02T00:00:50;2.50;;;1.52;;
26377;SDS011;14078;50.974;6.786;2023-07-02T00:03:18;2.88;;;1.70;;
26377;SDS011;14078;50.974;6.786;2023-07-02T00:05:46;5.05;;;2.30;;
26377;SDS011;14078;50.974;6.786;2023-07-02T00:08:15;3.38;;;1.75;;
26377;SDS011;14078;50.974;6.786;2023-07-02T00:10:42;4.10;;;1.83;;
26377;SDS011;14078;50.974;6.786;2023-07-02T00:13:09;2.38;;;1.40;;
26377;SDS011;14078;50.974;6.786;2023-07-02T00:15:36;2.30;;;1.60;;
26377;SDS011;14078;50.974;6.786;2023-07-02T00:18:02;4.90;;;1.83;;
26377;SDS011;14078;50.974;6.786;2023-07-02T00:20:30;6.18;;;1.80;;
26377;SDS011;14078;50.974;6.786;2023-07-02T00:23:00;4.78;;;1.60;;
26377;SDS011;14078;50.974;6.786;2023-07-02T00:25:27;3.33;;;1.73;;
26377;SDS011;14078;50.974;6.786;2023-07-02T00:27:53;2.72;;;1.90;;
26377;SDS011;14078;50.974;6.786;2023-07-02T00:30:20;2.75;;;2.08;;
26377;SDS011;14078;50.974;6.786;2023-07-02T00:32:47;2.80;;;1.33;;
26377;SDS011;14078;50.974;6.786;2023-07-02T00:37:41;3.03;;;1.65;;
26377;SDS011;14078;50.974;6.786;2023-07-02T00:40:08;4.20;;;1.92;;
26377;SDS011;14078;50.974;6.786;2023-07-02T00:42:35;4.63;;;2.20;;
26377;SDS011;14078;50.974;6.786;2023-07-02T00:45:02;4.43;;;1.80;;
26377;SDS011;14078;50.974;6.786;2023-07-02T00:47:29;3.78;;;2.05;;
26377;SDS011;14078;50.974;6.786;2023-07-02T00:49:58;2.67;;;1.77;;
26377;SDS011;14078;50.974;6.786;2023-07-02T00:52:27;4.80;;;2.40;;
26377;SDS011;14078;50.974;6.786;2023-07-02T00:54:55;5.72;;;2.10;;
26377;SDS011;14078;50.974;6.786;2023-07-02T00:57:22;2.45;;;1.70;;
26377;SDS011;14078;50.974;6.786;2023-07-02T00:59:55;5.50;;;2.40;;
26377;SDS011;14078;50.974;6.786;2023-07-02T01:02:22;4.88;;;3.10;;
26377;SDS011;14078;50.974;6.786;2023-07-02T01:04:50;4.50;;;2.42;;
26377;SDS011;14078;50.974;6.786;2023-07-02T01:07:22;6.40;;;2.80;;
26377;SDS011;14078;50.974;6.786;2023-07-02T01:09:49;6.55;;;2.63;;
26377;SDS011;14078;50.974;6.786;2023-07-02T01:12:17;7.65;;;2.85;;
26377;SDS011;14078;50.974;6.786;2023-07-02T01:14:47;4.35;;;2.78;;
26377;SDS011;14078;50.974;6.786;2023-07-02T01:17:16;4.80;;;2.50;;
26377;SDS011;14078;50.974;6.786;2023-07-02T01:19:45;4.13;;;2.28;;
26377;SDS011;14078;50.974;6.786;2023-07-02T01:22:16;5.97;;;2.85;;
26377;SDS011;14078;50.974;6.786;2023-07-02T01:24:44;7.43;;;3.33;;
26377;SDS011;14078;50.974;6.786;2023-07-02T01:27:12;5.63;;;3.00;;
26377;SDS011;14078;50.974;6.786;2023-07-02T01:29:39;5.15;;;3.50;;
26377;SDS011;14078;50.974;6.786;2023-07-02T01:34:34;4.85;;;2.92;;
26377;SDS011;14078;50.974;6.786;2023-07-02T01:37:04;4.07;;;2.88;;
26377;SDS011;14078;50.974;6.786;2023-07-02T01:39:30;8.05;;;3.35;;
26377;SDS011;14078;50.974;6.786;2023-07-02T01:42:06;6.40;;;3.85;;
26377;SDS011;14078;50.974;6.786;2023-07-02T01:44:35;7.65;;;3.78;;
26377;SDS011;14078;50.974;6.786;2023-07-02T01:47:02;8.10;;;4.18;;
26377;SDS011;14078;50.974;6.786;2023-07-02T01:54:25;5.53;;;3.63;;
26377;SDS011;14078;50.974;6.786;2023-07-02T01:56:52;7.32;;;3.30;;
26377;SDS011;14078;50.974;6.786;2023-07-02T01:59:19;6.22;;;4.32;;
26377;SDS011;14078;50.974;6.786;2023-07-02T02:01:46;8.48;;;4.65;;
26377;SDS011;14078;50.974;6.786;2023-07-02T02:04:12;8.57;;;4.47;;
26377;SDS011;14078;50.974;6.786;2023-07-02T02:06:39;7.70;;;4.60;;
26377;SDS011;14078;50.974;6.786;2023-07-02T02:09:07;9.02;;;3.83;;
26377;SDS011;14078;50.974;6.786;2023-07-02T02:11:37;11.90;;;4.30;;
26377;SDS011;14078;50.974;6.786;2023-07-02T02:14:05;8.82;;;4.28;;
26377;SDS011;14078;50.974;6.786;2023-07-02T02:16:32;14.50;;;5.43;;
26377;SDS011;14078;50.974;6.786;2023-07-02T02:18:59;9.77;;;4.05;;
26377;SDS011;14078;50.974;6.786;2023-07-02T02:21:26;10.57;;;5.47;;
26377;SDS011;14078;50.974;6.786;2023-07-02T02:23:53;11.05;;;5.45;;
26377;SDS011;14078;50.974;6.786;2023-07-02T02:28:48;10.15;;;4.65;;
26377;SDS011;14078;50.974;6.786;2023-07-02T02:31:15;8.90;;;4.75;;
26377;SDS011;14078;50.974;6.786;2023-07-02T02:33:42;9.65;;;5.70;;
26377;SDS011;14078;50.974;6.786;2023-07-02T02:36:09;12.77;;;5.20;;
26377;SDS011;14078;50.974;6.786;2023-07-02T02:38:35;7.97;;;4.32;;
26377;SDS011;14078;50.974;6.786;2023-07-02T02:41:03;10.70;;;4.68;;
26377;SDS011;14078;50.974;6.786;2023-07-02T02:43:29;10.82;;;5.13;;
26377;SDS011;14078;50.974;6.786;2023-07-02T02:45:57;10.55;;;4.78;;
26377;SDS011;14078;50.974;6.786;2023-07-02T02:48:24;14.15;;;5.30;;
26377;SDS011;14078;50.974;6.786;2023-07-02T02:50:51;9.52;;;4.55;;
26377;SDS011;14078;50.974;6.786;2023-07-02T02:53:17;8.57;;;4.88;;
26377;SDS011;14078;50.974;6.786;2023-07-02T02:55:44;12.50;;;6.47;;
26377;SDS011;14078;50.974;6.786;2023-07-02T03:00:37;12.45;;;5.43;;
26377;SDS011;14078;50.974;6.786;2023-07-02T03:03:08;9.60;;;4.88;;
26377;SDS011;14078;50.974;6.786;2023-07-02T03:05:35;9.30;;;4.93;;
26377;SDS011;14078;50.974;6.786;2023-07-02T03:08:02;11.50;;;4.93;;
26377;SDS011;14078;50.974;6.786;2023-07-02T03:10:29;13.70;;;5.53;;
26377;SDS011;14078;50.974;6.786;2023-07-02T03:12:55;12.02;;;5.47;;
26377;SDS011;14078;50.974;6.786;2023-07-02T03:15:22;11.30;;;5.25;;
26377;SDS011;14078;50.974;6.786;2023-07-02T03:17:49;12.20;;;5.68;;
26377;SDS011;14078;50.974;6.786;2023-07-02T03:20:17;12.98;;;6.03;;
26377;SDS011;14078;50.974;6.786;2023-07-02T03:22:43;13.30;;;5.88;;
26377;SDS011;14078;50.974;6.786;2023-07-02T03:25:10;11.88;;;5.30;;
26377;SDS011;14078;50.974;6.786;2023-07-02T03:27:37;16.33;;;6.13;;
26377;SDS011;14078;50.974;6.786;2023-07-02T03:30:04;15.05;;;8.23;;
26377;SDS011;14078;50.974;6.786;2023-07-02T03:32:31;11.48;;;5.28;;
26377;SDS011;14078;50.974;6.786;2023-07-02T03:34:58;13.48;;;6.93;;
26377;SDS011;14078;50.974;6.786;2023-07-02T03:37:27;13.10;;;6.57;;
26377;SDS011;14078;50.974;6.786;2023-07-02T03:39:54;11.65;;;5.78;;
26377;SDS011;14078;50.974;6.786;2023-07-02T03:42:20;14.10;;;7.53;;
26377;SDS011;14078;50.974;6.786;2023-07-02T03:44:47;14.18;;;7.57;;
26377;SDS011;14078;50.974;6.786;2023-07-02T03:47:14;14.60;;;7.15;;
26377;SDS011;14078;50.974;6.786;2023-07-02T03:49:41;14.27;;;7.50;;
26377;SDS011;14078;50.974;6.786;2023-07-02T03:52:08;14.65;;;7.80;;
26377;SDS011;14078;50.974;6.786;2023-07-02T03:54:36;14.18;;;7.53;;
26377;SDS011;14078;50.974;6.786;2023-07-02T03:57:02;12.87;;;7.60;;
26377;SDS011;14078;50.974;6.786;2023-07-02T03:59:29;16.83;;;7.55;;
26377;SDS011;14078;50.974;6.786;2023-07-02T04:01:56;14.63;;;7.65;;
26377;SDS011;14078;50.974;6.786;2023-07-02T04:04:23;14.63;;;7.88;;
26377;SDS011;14078;50.974;6.786;2023-07-02T04:06:49;16.97;;;8.33;;
26377;SDS011;14078;50.974;6.786;2023-07-02T04:09:16;16.08;;;8.32;;
26377;SDS011;14078;50.974;6.786;2023-07-02T04:11:45;18.83;;;8.20;;
26377;SDS011;14078;50.974;6.786;2023-07-02T04:14:12;16.33;;;8.65;;
26377;SDS011;14078;50.974;6.786;2023-07-02T04:16:38;19.73;;;8.88;;
26377;SDS011;14078;50.974;6.786;2023-07-02T04:19:05;15.73;;;8.07;;
26377;SDS011;14078;50.974;6.786;2023-07-02T04:21:32;13.60;;;8.47;;
26377;SDS011;14078;50.974;6.786;2023-07-02T04:23:58;16.83;;;8.70;;
26377;SDS011;14078;50.974;6.786;2023-07-02T04:26:25;16.45;;;9.00;;
26377;SDS011;14078;50.974;6.786;2023-07-02T04:28:54;16.67;;;8.60;;
26377;SDS011;14078;50.974;6.786;2023-07-02T04:31:24;16.70;;;9.50;;
26377;SDS011;14078;50.974;6.786;2023-07-02T04:33:51;18.08;;;7.25;;
26377;SDS011;14078;50.974;6.786;2023-07-02T04:36:17;13.98;;;7.25;;
26377;SDS011;14078;50.974;6.786;2023-07-02T04:38:44;19.77;;;8.10;;
26377;SDS011;14078;50.974;6.786;2023-07-02T04:41:11;18.20;;;8.15;;
26377;SDS011;14078;50.974;6.786;2023-07-02T04:43:37;18.70;;;7.93;;
26377;SDS011;14078;50.974;6.786;2023-07-02T04:46:05;19.40;;;9.00;;
26377;SDS011;14078;50.974;6.786;2023-07-02T04:50:59;16.17;;;7.20;;
26377;SDS011;14078;50.974;6.786;2023-07-02T04:53:26;20.23;;;8.27;;
26377;SDS011;14078;50.974;6.786;2023-07-02T04:55:52;22.50;;;8.05;;
26377;SDS011;14078;50.974;6.786;2023-07-02T04:58:19;18.08;;;7.93;;
26377;SDS011;14078;50.974;6.786;2023-07-02T05:05:40;16.42;;;7.50;;
26377;SDS011;14078;50.974;6.786;2023-07-02T05:08:07;21.83;;;9.00;;
26377;SDS011;14078;50.974;6.786;2023-07-02T05:10:33;21.13;;;9.38;;
26377;SDS011;14078;50.974;6.786;2023-07-02T05:13:00;22.88;;;8.35;;
26377;SDS011;14078;50.974;6.786;2023-07-02T05:15:27;20.27;;;8.68;;
26377;SDS011;14078;50.974;6.786;2023-07-02T05:20:21;28.80;;;9.48;;
26377;SDS011;14078;50.974;6.786;2023-07-02T05:22:48;19.92;;;8.55;;
26377;SDS011;14078;50.974;6.786;2023-07-02T05:25:15;21.70;;;9.77;;
26377;SDS011;14078;50.974;6.786;2023-07-02T05:27:41;20.15;;;8.73;;
26377;SDS011;14078;50.974;6.786;2023-07-02T05:30:08;20.92;;;8.98;;
26377;SDS011;14078;50.974;6.786;2023-07-02T05:35:04;21.38;;;9.48;;
26377;SDS011;14078;50.974;6.786;2023-07-02T05:37:32;16.90;;;8.70;;
26377;SDS011;14078;50.974;6.786;2023-07-02T05:39:59;26.60;;;10.75;;
26377;SDS011;14078;50.974;6.786;2023-07-02T05:42:26;16.58;;;9.13;;
26377;SDS011;14078;50.974;6.786;2023-07-02T05:44:52;22.20;;;8.57;;
26377;SDS011;14078;50.974;6.786;2023-07-02T05:47:19;22.60;;;9.70;;
26377;SDS011;14078;50.974;6.786;2023-07-02T05:49:45;20.15;;;9.32;;
26377;SDS011;14078;50.974;6.786;2023-07-02T05:52:12;24.35;;;10.77;;
26377;SDS011;14078;50.974;6.786;2023-07-02T05:54:40;22.25;;;9.45;;
26377;SDS011;14078;50.974;6.786;2023-07-02T05:57:07;29.73;;;10.57;;
26377;SDS011;14078;50.974;6.786;2023-07-02T06:02:00;23.63;;;9.65;;
26377;SDS011;14078;50.974;6.786;2023-07-02T06:04:27;20.52;;;9.55;;
26377;SDS011;14078;50.974;6.786;2023-07-02T06:06:53;17.20;;;9.05;;
26377;SDS011;14078;50.974;6.786;2023-07-02T06:09:20;23.92;;;9.77;;
26377;SDS011;14078;50.974;6.786;2023-07-02T06:11:48;25.85;;;11.40;;
26377;SDS011;14078;50.974;6.786;2023-07-02T06:38:44;19.65;;;9.18;;
26377;SDS011;14078;50.974;6.786;2023-07-02T06:41:11;24.23;;;10.45;;
26377;SDS011;14078;50.974;6.786;2023-07-02T06:43:38;20.85;;;9.00;;
26377;SDS011;14078;50.974;6.786;2023-07-02T06:46:06;22.00;;;8.35;;
26377;SDS011;14078;50.974;6.786;2023-07-02T06:48:32;22.90;;;9.23;;
26377;SDS011;14078;50.974;6.786;2023-07-02T06:50:59;17.08;;;8.65;;
26377;SDS011;14078;50.974;6.786;2023-07-02T06:53:26;15.80;;;9.27;;
26377;SDS011;14078;50.974;6.786;2023-07-02T06:55:52;20.83;;;8.50;;
26377;SDS011;14078;50.974;6.786;2023-07-02T06:58:19;20.70;;;8.88;;
26377;SDS011;14078;50.974;6.786;2023-07-02T07:00:46;19.27;;;8.13;;
26377;SDS011;14078;50.974;6.786;2023-07-02T07:03:14;19.30;;;8.75;;
26377;SDS011;14078;50.974;6.786;2023-07-02T07:05:40;17.92;;;7.82;;
26377;SDS011;14078;50.974;6.786;2023-07-02T07:08:07;16.83;;;8.30;;
26377;SDS011;14078;50.974;6.786;2023-07-02T07:10:34;24.27;;;7.95;;
26377;SDS011;14078;50.974;6.786;2023-07-02T07:13:00;15.88;;;7.72;;
26377;SDS011;14078;50.974;6.786;2023-07-02T07:15:29;19.83;;;8.85;;
26377;SDS011;14078;50.974;6.786;2023-07-02T07:17:58;14.13;;;8.27;;
26377;SDS011;14078;50.974;6.786;2023-07-02T07:20:26;28.92;;;9.70;;
26377;SDS011;14078;50.974;6.786;2023-07-02T07:22:53;16.60;;;7.80;;
26377;SDS011;14078;50.974;6.786;2023-07-02T07:25:20;20.63;;;7.50;;
26377;SDS011;14078;50.974;6.786;2023-07-02T07:27:46;24.15;;;7.93;;
26377;SDS011;14078;50.974;6.786;2023-07-02T07:32:40;17.27;;;7.35;;
26377;SDS011;14078;50.974;6.786;2023-07-02T07:35:07;18.08;;;8.90;;
26377;SDS011;14078;50.974;6.786;2023-07-02T07:37:35;15.18;;;8.65;;
26377;SDS011;14078;50.974;6.786;2023-07-02T07:40:03;19.50;;;9.40;;
26377;SDS011;14078;50.974;6.786;2023-07-02T07:49:50;11.98;;;6.55;;
26377;SDS011;14078;50.974;6.786;2023-07-02T07:52:17;19.67;;;7.07;;
26377;SDS011;14078;50.974;6.786;2023-07-02T07:54:45;15.48;;;7.65;;
26377;SDS011;14078;50.974;6.786;2023-07-02T07:57:12;16.20;;;7.40;;
26377;SDS011;14078;50.974;6.786;2023-07-02T07:59:38;19.60;;;6.38;;
26377;SDS011;14078;50.974;6.786;2023-07-02T08:02:05;17.08;;;5.85;;
26377;SDS011;14078;50.974;6.786;2023-07-02T08:04:32;18.25;;;7.75;;
26377;SDS011;14078;50.974;6.786;2023-07-02T08:06:58;16.38;;;7.25;;
26377;SDS011;14078;50.974;6.786;2023-07-02T08:09:25;24.15;;;8.52;;
26377;SDS011;14078;50.974;6.786;2023-07-02T08:11:53;17.20;;;7.38;;
26377;SDS011;14078;50.974;6.786;2023-07-02T08:16:46;18.10;;;7.00;;
26377;SDS011;14078;50.974;6.786;2023-07-02T08:24:06;11.88;;;6.38;;
26377;SDS011;14078;50.974;6.786;2023-07-02T08:26:33;14.88;;;8.75;;
26377;SDS011;14078;50.974;6.786;2023-07-02T08:29:01;16.42;;;8.27;;
26377;SDS011;14078;50.974;6.786;2023-07-02T08:31:28;22.63;;;8.60;;
26377;SDS011;14078;50.974;6.786;2023-07-02T08:33:54;16.67;;;7.75;;
26377;SDS011;14078;50.974;6.786;2023-07-02T08:36:21;15.25;;;7.20;;
26377;SDS011;14078;50.974;6.786;2023-07-02T08:38:48;15.57;;;6.72;;
26377;SDS011;14078;50.974;6.786;2023-07-02T08:41:16;14.68;;;6.32;;
26377;SDS011;14078;50.974;6.786;2023-07-02T08:43:43;13.73;;;6.47;;
26377;SDS011;14078;50.974;6.786;2023-07-02T08:46:11;12.57;;;6.50;;
26377;SDS011;14078;50.974;6.786;2023-07-02T08:48:38;16.35;;;8.55;;
26377;SDS011;14078;50.974;6.786;2023-07-02T08:51:05;14.52;;;7.65;;
26377;SDS011;14078;50.974;6.786;2023-07-02T08:53:31;16.83;;;6.95;;
26377;SDS011;14078;50.974;6.786;2023-07-02T08:55:58;18.70;;;8.10;;
26377;SDS011;14078;50.974;6.786;2023-07-02T08:58:25;18.83;;;7.10;;
26377;SDS011;14078;50.974;6.786;2023-07-02T09:01:03;14.93;;;7.15;;
26377;SDS011;14078;50.974;6.786;2023-07-02T09:03:31;13.10;;;7.07;;
26377;SDS011;14078;50.974;6.786;2023-07-02T09:05:58;18.25;;;7.55;;
26377;SDS011;14078;50.974;6.786;2023-07-02T09:08:25;17.60;;;6.72;;
26377;SDS011;14078;50.974;6.786;2023-07-02T09:10:53;15.18;;;7.93;;
26377;SDS011;14078;50.974;6.786;2023-07-02T09:13:19;13.43;;;6.72;;
26377;SDS011;14078;50.974;6.786;2023-07-02T09:18:16;18.45;;;6.93;;
26377;SDS011;14078;50.974;6.786;2023-07-02T09:20:45;20.58;;;8.50;;
26377;SDS011;14078;50.974;6.786;2023-07-02T09:23:12;15.18;;;7.30;;
26377;SDS011;14078;50.974;6.786;2023-07-02T09:25:39;18.58;;;9.02;;
26377;SDS011;14078;50.974;6.786;2023-07-02T09:28:16;18.42;;;8.35;;
26377;SDS011;14078;50.974;6.786;2023-07-02T09:30:54;15.88;;;7.55;;
26377;SDS011;14078;50.974;6.786;2023-07-02T09:33:22;17.70;;;7.90;;
26377;SDS011;14078;50.974;6.786;2023-07-02T09:35:51;14.07;;;7.93;;
26377;SDS011;14078;50.974;6.786;2023-07-02T09:38:18;16.33;;;8.27;;
26377;SDS011;14078;50.974;6.786;2023-07-02T09:40:46;14.73;;;8.75;;
26377;SDS011;14078;50.974;6.786;2023-07-02T09:43:15;15.00;;;7.28;;
26377;SDS011;14078;50.974;6.786;2023-07-02T09:45:43;15.88;;;7.15;;
26377;SDS011;14078;50.974;6.786;2023-07-02T09:48:12;19.58;;;7.65;;
26377;SDS011;14078;50.974;6.786;2023-07-02T09:53:08;19.75;;;8.27;;
26377;SDS011;14078;50.974;6.786;2023-07-02T09:55:35;19.88;;;7.47;;
26377;SDS011;14078;50.974;6.786;2023-07-02T09:58:02;12.95;;;7.38;;
26377;SDS011;14078;50.974;6.786;2023-07-02T10:00:28;17.15;;;7.20;;
26377;SDS011;14078;50.974;6.786;2023-07-02T10:02:55;14.75;;;8.05;;
26377;SDS011;14078;50.974;6.786;2023-07-02T10:05:25;16.40;;;7.93;;
26377;SDS011;14078;50.974;6.786;2023-07-02T10:07:52;15.30;;;6.85;;
26377;SDS011;14078;50.974;6.786;2023-07-02T10:10:27;20.77;;;8.63;;
26377;SDS011;14078;50.974;6.786;2023-07-02T10:12:54;13.20;;;6.93;;
26377;SDS011;14078;50.974;6.786;2023-07-02T10:15:24;13.75;;;6.97;;
26377;SDS011;14078;50.974;6.786;2023-07-02T10:17:56;17.67;;;7.10;;
26377;SDS011;14078;50.974;6.786;2023-07-02T10:20:33;15.90;;;8.15;;
26377;SDS011;14078;50.974;6.786;2023-07-02T10:23:01;12.95;;;8.27;;
26377;SDS011;14078;50.974;6.786;2023-07-02T10:25:30;14.68;;;7.75;;
26377;SDS011;14078;50.974;6.786;2023-07-02T10:27:59;13.18;;;8.43;;
26377;SDS011;14078;50.974;6.786;2023-07-02T10:30:30;13.13;;;8.02;;
26377;SDS011;14078;50.974;6.786;2023-07-02T10:33:06;17.63;;;8.45;;
26377;SDS011;14078;50.974;6.786;2023-07-02T10:35:34;14.27;;;7.47;;
26377;SDS011;14078;50.974;6.786;2023-07-02T10:38:01;17.45;;;7.95;;
26377;SDS011;14078;50.974;6.786;2023-07-02T10:40:29;15.80;;;8.10;;
26377;SDS011;14078;50.974;6.786;2023-07-02T10:42:58;14.60;;;6.80;;
26377;SDS011;14078;50.974;6.786;2023-07-02T10:45:30;12.57;;;7.18;;
26377;SDS011;14078;50.974;6.786;2023-07-02T10:47:58;15.25;;;6.53;;
26377;SDS011;14078;50.974;6.786;2023-07-02T10:50:24;13.25;;;7.03;;
26377;SDS011;14078;50.974;6.786;2023-07-02T10:52:53;16.15;;;6.78;;
26377;SDS011;14078;50.974;6.786;2023-07-02T10:55:20;14.70;;;7.40;;
26377;SDS011;14078;50.974;6.786;2023-07-02T10:57:49;13.95;;;6.70;;
26377;SDS011;14078;50.974;6.786;2023-07-02T11:02:43;11.98;;;6.55;;
26377;SDS011;14078;50.974;6.786;2023-07-02T11:05:10;17.13;;;6.95;;
26377;SDS011;14078;50.974;6.786;2023-07-02T11:07:37;14.00;;;6.15;;
26377;SDS011;14078;50.974;6.786;2023-07-02T11:10:05;12.20;;;6.40;;
26377;SDS011;14078;50.974;6.786;2023-07-02T11:12:32;15.00;;;6.50;;
26377;SDS011;14078;50.974;6.786;2023-07-02T11:15:10;18.20;;;7.70;;
26377;SDS011;14078;50.974;6.786;2023-07-02T11:17:38;16.58;;;7.00;;
26377;SDS011;14078;50.974;6.786;2023-07-02T11:20:07;19.48;;;7.70;;
26377;SDS011;14078;50.974;6.786;2023-07-02T11:22:34;14.20;;;7.32;;
26377;SDS011;14078;50.974;6.786;2023-07-02T11:25:09;12.95;;;7.13;;
26377;SDS011;14078;50.974;6.786;2023-07-02T11:27:36;18.42;;;7.47;;
26377;SDS011;14078;50.974;6.786;2023-07-02T11:30:03;11.98;;;6.18;;
26377;SDS011;14078;50.974;6.786;2023-07-02T11:32:34;18.23;;;7.70;;
26377;SDS011;14078;50.974;6.786;2023-07-02T11:35:13;12.27;;;6.28;;
26377;SDS011;14078;50.974;6.786;2023-07-02T11:37:40;13.57;;;5.82;;
26377;SDS011;14078;50.974;6.786;2023-07-02T11:40:07;11.27;;;6.25;;
26377;SDS011;14078;50.974;6.786;2023-07-02T11:42:34;11.15;;;5.82;;
26377;SDS011;14078;50.974;6.786;2023-07-02T11:45:01;11.77;;;5.75;;
26377;SDS011;14078;50.974;6.786;2023-07-02T11:47:28;10.60;;;5.30;;
26377;SDS011;14078;50.974;6.786;2023-07-02T11:49:56;13.50;;;6.30;;
26377;SDS011;14078;50.974;6.786;2023-07-02T11:52:24;9.02;;;5.22;;
26377;SDS011;14078;50.974;6.786;2023-07-02T11:54:50;15.30;;;5.38;;
26377;SDS011;14078;50.974;6.786;2023-07-02T11:57:17;6.95;;;4.32;;
26377;SDS011;14078;50.974;6.786;2023-07-02T11:59:44;10.52;;;4.93;;
26377;SDS011;14078;50.974;6.786;2023-07-02T12:02:10;7.85;;;4.78;;
26377;SDS011;14078;50.974;6.786;2023-07-02T12:04:37;6.72;;;4.45;;
26377;SDS011;14078;50.974;6.786;2023-07-02T12:07:06;8.55;;;4.45;;
26377;SDS011;14078;50.974;6.786;2023-07-02T12:09:33;10.68;;;4.00;;
26377;SDS011;14078;50.974;6.786;2023-07-02T12:11:59;9.05;;;4.35;;
26377;SDS011;14078;50.974;6.786;2023-07-02T12:14:26;6.20;;;3.65;;
26377;SDS011;14078;50.974;6.786;2023-07-02T12:16:52;9.55;;;4.45;;
26377;SDS011;14078;50.974;6.786;2023-07-02T12:19:19;7.72;;;4.20;;
26377;SDS011;14078;50.974;6.786;2023-07-02T12:21:46;8.93;;;3.80;;
26377;SDS011;14078;50.974;6.786;2023-07-02T12:24:14;10.90;;;4.45;;
26377;SDS011;14078;50.974;6.786;2023-07-02T12:26:42;7.70;;;4.10;;
26377;SDS011;14078;50.974;6.786;2023-07-02T12:29:08;6.93;;;4.43;;
26377;SDS011;14078;50.974;6.786;2023-07-02T12:31:35;8.35;;;4.00;;
26377;SDS011;14078;50.974;6.786;2023-07-02T12:34:02;12.15;;;4.25;;
26377;SDS011;14078;50.974;6.786;2023-07-02T12:36:29;10.52;;;4.35;;
26377;SDS011;14078;50.974;6.786;2023-07-02T12:38:55;8.88;;;3.97;;
26377;SDS011;14078;50.974;6.786;2023-07-02T12:41:23;9.20;;;4.93;;
26377;SDS011;14078;50.974;6.786;2023-07-02T12:43:50;9.02;;;4.32;;
26377;SDS011;14078;50.974;6.786;2023-07-02T12:46:16;8.38;;;4.60;;
26377;SDS011;14078;50.974;6.786;2023-07-02T12:48:43;8.52;;;4.75;;
26377;SDS011;14078;50.974;6.786;2023-07-02T12:51:10;7.85;;;4.15;;
26377;SDS011;14078;50.974;6.786;2023-07-02T12:53:37;7.95;;;5.38;;
26377;SDS011;14078;50.974;6.786;2023-07-02T12:56:04;8.13;;;4.90;;
26377;SDS011;14078;50.974;6.786;2023-07-02T12:58:32;12.55;;;5.07;;
26377;SDS011;14078;50.974;6.786;2023-07-02T13:00:59;10.35;;;5.15;;
26377;SDS011;14078;50.974;6.786;2023-07-02T13:03:25;10.00;;;4.45;;
26377;SDS011;14078;50.974;6.786;2023-07-02T13:05:52;9.82;;;4.78;;
26377;SDS011;14078;50.974;6.786;2023-07-02T13:08:19;10.75;;;5.40;;
26377;SDS011;14078;50.974;6.786;2023-07-02T13:10:45;14.70;;;5.82;;
26377;SDS011;14078;50.974;6.786;2023-07-02T13:13:12;8.73;;;4.72;;
26377;SDS011;14078;50.974;6.786;2023-07-02T13:15:40;10.95;;;5.85;;
26377;SDS011;14078;50.974;6.786;2023-07-02T13:18:07;10.60;;;4.40;;
26377;SDS011;14078;50.974;6.786;2023-07-02T13:20:33;13.63;;;5.78;;
26377;SDS011;14078;50.974;6.786;2023-07-02T13:23:00;9.05;;;5.78;;
26377;SDS011;14078;50.974;6.786;2023-07-02T13:25:27;11.05;;;5.22;;
26377;SDS011;14078;50.974;6.786;2023-07-02T13:27:53;9.00;;;5.28;;
26377;SDS011;14078;50.974;6.786;2023-07-02T13:30:20;10.35;;;6.35;;
26377;SDS011;14078;50.974;6.786;2023-07-02T13:32:48;11.15;;;5.45;;
26377;SDS011;14078;50.974;6.786;2023-07-02T13:35:15;14.00;;;6.13;;
26377;SDS011;14078;50.974;6.786;2023-07-02T13:37:41;8.63;;;5.05;;
26377;SDS011;14078;50.974;6.786;2023-07-02T13:40:08;9.30;;;5.32;;
26377;SDS011;14078;50.974;6.786;2023-07-02T13:42:38;9.68;;;6.20;;
26377;SDS011;14078;50.974;6.786;2023-07-02T13:45:05;10.73;;;4.90;;
26377;SDS011;14078;50.974;6.786;2023-07-02T13:47:33;12.20;;;5.60;;
26377;SDS011;14078;50.974;6.786;2023-07-02T13:50:01;12.63;;;6.05;;
26377;SDS011;14078;50.974;6.786;2023-07-02T13:52:28;9.47;;;5.07;;
26377;SDS011;14078;50.974;6.786;2023-07-02T13:54:55;11.73;;;4.78;;
26377;SDS011;14078;50.974;6.786;2023-07-02T13:57:21;9.20;;;4.60;;
26377;SDS011;14078;50.974;6.786;2023-07-02T13:59:49;14.95;;;6.22;;
26377;SDS011;14078;50.974;6.786;2023-07-02T14:02:16;10.48;;;5.50;;
26377;SDS011;14078;50.974;6.786;2023-07-02T14:04:43;14.50;;;5.93;;
26377;SDS011;14078;50.974;6.786;2023-07-02T14:07:10;12.95;;;5.63;;
26377;SDS011;14078;50.974;6.786;2023-07-02T14:09:37;12.20;;;5.43;;
26377;SDS011;14078;50.974;6.786;2023-07-02T14:12:04;9.32;;;5.43;;
26377;SDS011;14078;50.974;6.786;2023-07-02T14:14:31;10.52;;;5.38;;
26377;SDS011;14078;50.974;6.786;2023-07-02T14:16:59;11.90;;;5.68;;
26377;SDS011;14078;50.974;6.786;2023-07-02T14:19:25;11.90;;;7.15;;
26377;SDS011;14078;50.974;6.786;2023-07-02T14:21:52;8.65;;;4.88;;
26377;SDS011;14078;50.974;6.786;2023-07-02T14:24:19;11.30;;;5.00;;
26377;SDS011;14078;50.974;6.786;2023-07-02T14:26:45;9.05;;;5.15;;
26377;SDS011;14078;50.974;6.786;2023-07-02T14:29:12;9.88;;;5.70;;
26377;SDS011;14078;50.974;6.786;2023-07-02T14:31:39;16.30;;;5.93;;
26377;SDS011;14078;50.974;6.786;2023-07-02T14:34:07;12.07;;;5.97;;
26377;SDS011;14078;50.974;6.786;2023-07-02T14:36:33;14.30;;;6.07;;
26377;SDS011;14078;50.974;6.786;2023-07-02T14:39:00;9.75;;;6.07;;
26377;SDS011;14078;50.974;6.786;2023-07-02T14:41:27;12.73;;;5.88;;
26377;SDS011;14078;50.974;6.786;2023-07-02T14:43:55;9.80;;;6.25;;
26377;SDS011;14078;50.974;6.786;2023-07-02T14:48:49;11.32;;;5.70;;
26377;SDS011;14078;50.974;6.786;2023-07-02T14:51:17;10.80;;;6.50;;
26377;SDS011;14078;50.974;6.786;2023-07-02T14:53:43;12.70;;;7.22;;
26377;SDS011;14078;50.974;6.786;2023-07-02T14:56:10;10.60;;;6.45;;
26377;SDS011;14078;50.974;6.786;2023-07-02T14:58:37;7.90;;;5.15;;
26377;SDS011;14078;50.974;6.786;2023-07-02T15:01:03;10.43;;;5.47;;
26377;SDS011;14078;50.974;6.786;2023-07-02T15:03:30;11.15;;;5.05;;
26377;SDS011;14078;50.974;6.786;2023-07-02T15:06:05;9.50;;;6.25;;
26377;SDS011;14078;50.974;6.786;2023-07-02T15:08:34;10.20;;;5.85;;
26377;SDS011;14078;50.974;6.786;2023-07-02T15:11:01;6.72;;;5.05;;
26377;SDS011;14078;50.974;6.786;2023-07-02T15:13:28;12.02;;;5.85;;
26377;SDS011;14078;50.974;6.786;2023-07-02T15:15:55;7.43;;;4.57;;
26377;SDS011;14078;50.974;6.786;2023-07-02T15:18:21;10.43;;;5.43;;
26377;SDS011;14078;50.974;6.786;2023-07-02T15:20:49;8.52;;;4.95;;
26377;SDS011;14078;50.974;6.786;2023-07-02T15:23:18;10.48;;;5.50;;
26377;SDS011;14078;50.974;6.786;2023-07-02T15:25:51;10.88;;;5.72;;
26377;SDS011;14078;50.974;6.786;2023-07-02T15:28:18;8.20;;;5.00;;
26377;SDS011;14078;50.974;6.786;2023-07-02T15:30:45;12.88;;;5.13;;
26377;SDS011;14078;50.974;6.786;2023-07-02T15:33:12;9.93;;;4.95;;
26377;SDS011;14078;50.974;6.786;2023-07-02T15:35:39;9.23;;;5.13;;
26377;SDS011;14078;50.974;6.786;2023-07-02T15:38:05;7.68;;;4.97;;
26377;SDS011;14078;50.974;6.786;2023-07-02T15:40:32;13.05;;;5.70;;
26377;SDS011;14078;50.974;6.786;2023-07-02T15:43:00;9.65;;;5.60;;
26377;SDS011;14078;50.974;6.786;2023-07-02T15:45:27;10.98;;;5.85;;
26377;SDS011;14078;50.974;6.786;2023-07-02T15:47:54;13.85;;;5.70;;
26377;SDS011;14078;50.974;6.786;2023-07-02T15:50:21;14.75;;;5.63;;
26377;SDS011;14078;50.974;6.786;2023-07-02T15:52:48;12.43;;;5.72;;
26377;SDS011;14078;50.974;6.786;2023-07-02T15:55:16;12.50;;;5.28;;
26377;SDS011;14078;50.974;6.786;2023-07-02T15:57:43;12.10;;;6.05;;
26377;SDS011;14078;50.974;6.786;2023-07-02T16:00:12;9.80;;;5.68;;